createdAt,value
2022-11-03T00:04:03.490Z,40.82
2022-11-03T00:09:02.658Z,40.55
2022-11-03T00:14:00.684Z,40.35
2022-11-03T00:18:57.595Z,40.23
2022-11-03T00:23:54.808Z,40.10
2022-11-03T00:28:53.420Z,40.17
2022-11-03T00:33:51.883Z,40.63
2022-11-03T00:38:49.068Z,41.10
2022-11-03T00:43:46.035Z,41.59
2022-11-03T00:48:43.660Z,41.86
2022-11-03T00:53:43.392Z,41.61
2022-11-03T00:58:40.409Z,41.89
2022-11-03T01:03:38.911Z,42.56
2022-11-03T01:08:36.760Z,43.33
2022-11-03T01:13:34.660Z,44.43
2022-11-03T01:18:31.723Z,45.27
2022-11-03T01:23:28.526Z,45.49
2022-11-03T01:28:25.593Z,45.76
2022-11-03T01:33:23.237Z,46.55
2022-11-03T01:38:20.244Z,46.88
2022-11-03T01:43:18.446Z,47.30
2022-11-03T01:48:17.502Z,47.56
2022-11-03T01:53:18.024Z,48.54
2022-11-03T01:58:18.526Z,48.63
2022-11-03T02:03:16.746Z,48.61
2022-11-03T02:08:19.732Z,48.56
2022-11-03T02:13:19.467Z,48.70
2022-11-03T02:18:19.805Z,48.68
2022-11-03T02:23:32.884Z,48.90
2022-11-03T02:28:32.754Z,49.19
2022-11-03T02:33:37.655Z,49.57
2022-11-03T02:38:39.101Z,49.47
2022-11-03T02:43:38.802Z,49.69
2022-11-03T02:48:36.052Z,49.79
2022-11-03T02:53:39.570Z,49.74
2022-11-03T02:58:44.177Z,50.08
2022-11-03T03:03:47.473Z,50.12
2022-11-03T03:08:51.038Z,50.56
2022-11-03T03:13:48.713Z,50.88
2022-11-03T03:18:49.906Z,50.51
2022-11-03T03:23:52.086Z,50.64
2022-11-03T03:28:54.043Z,50.70
2022-11-03T03:34:04.544Z,50.81
2022-11-03T03:39:11.366Z,50.88
2022-11-03T03:44:10.437Z,50.91
2022-11-03T03:49:07.808Z,51.05
2022-11-03T03:54:04.712Z,51.23
2022-11-03T03:59:01.667Z,51.35
2022-11-03T04:03:59.313Z,51.21
2022-11-03T04:08:56.209Z,51.54
2022-11-03T04:14:11.189Z,51.68
2022-11-03T04:19:29.400Z,52.01
2022-11-03T04:24:26.523Z,52.22
2022-11-03T04:29:23.428Z,52.41
2022-11-03T04:34:23.204Z,53.06
2022-11-03T04:39:20.205Z,53.17
2022-11-03T04:44:17.603Z,53.54
2022-11-03T04:49:22.482Z,53.73
2022-11-03T04:54:22.930Z,53.87
2022-11-03T04:59:22.724Z,54.22
2022-11-03T05:04:20.332Z,54.46
2022-11-03T05:09:24.813Z,54.70
2022-11-03T05:14:25.047Z,54.72
2022-11-03T05:19:27.381Z,54.66
2022-11-03T05:24:25.434Z,54.78
2022-11-03T05:29:26.163Z,54.44
2022-11-03T05:34:35.079Z,54.41
2022-11-03T05:39:36.849Z,54.09
2022-11-03T05:44:37.349Z,54.08
2022-11-03T05:49:35.102Z,53.89
2022-11-03T05:54:34.495Z,53.63
2022-11-03T05:59:31.328Z,53.43
2022-11-03T06:04:32.724Z,53.40
2022-11-03T06:09:33.949Z,52.91
2022-11-03T06:14:31.778Z,52.67
2022-11-03T06:19:31.251Z,52.24
2022-11-03T06:24:32.386Z,51.76
2022-11-03T06:29:32.239Z,51.35
2022-11-03T06:34:36.731Z,51.12
2022-11-03T06:39:57.920Z,50.92
2022-11-03T06:44:55.120Z,50.52
2022-11-03T06:50:00.641Z,50.31
2022-11-03T06:55:22.613Z,50.26
2022-11-03T07:00:39.886Z,50.31
2022-11-03T07:05:39.224Z,50.19
2022-11-03T07:10:37.651Z,49.92
2022-11-03T07:15:39.111Z,49.87
2022-11-03T07:20:40.138Z,49.43
2022-11-03T07:25:38.790Z,48.86
2022-11-03T07:30:36.765Z,48.38
2022-11-03T07:36:00.363Z,48.49
2022-11-03T07:40:57.789Z,47.92
2022-11-03T07:45:57.954Z,47.57
2022-11-03T07:50:56.736Z,47.08
2022-11-03T07:55:56.295Z,46.48
2022-11-03T08:00:58.965Z,46.20
2022-11-03T08:05:55.971Z,46.64
2022-11-03T08:10:52.879Z,46.12
2022-11-03T08:15:50.341Z,45.38
2022-11-03T08:20:47.367Z,45.35
2022-11-03T08:25:44.223Z,45.11
2022-11-03T08:30:41.037Z,44.66
2022-11-03T08:35:39.098Z,43.68
2022-11-03T08:40:36.091Z,42.92
2022-11-03T08:45:33.197Z,43.06
2022-11-03T08:50:30.238Z,42.80
2022-11-03T08:55:27.809Z,42.34
2022-11-03T09:00:24.858Z,42.31
2022-11-03T09:05:21.697Z,41.97
2022-11-03T09:10:19.362Z,42.22
2022-11-03T09:15:19.033Z,42.71
2022-11-03T09:20:16.876Z,42.84
2022-11-03T09:25:15.243Z,42.01
2022-11-03T09:30:14.585Z,42.28
2022-11-03T09:35:14.073Z,41.74
2022-11-03T09:40:14.669Z,41.60
2022-11-03T09:45:12.438Z,41.93
2022-11-03T09:50:15.871Z,42.50
2022-11-03T09:55:16.425Z,42.62
2022-11-03T10:00:18.400Z,42.70
2022-11-03T10:05:22.614Z,42.37
2022-11-03T10:10:21.491Z,41.74
2022-11-03T10:15:20.038Z,41.74
2022-11-03T10:20:20.920Z,41.56
2022-11-03T10:25:35.851Z,41.01
2022-11-03T10:30:45.301Z,41.77
2022-11-03T10:35:53.398Z,41.22
2022-11-03T10:40:50.419Z,40.98
2022-11-03T10:45:49.054Z,41.08
2022-11-03T10:50:46.013Z,40.23
2022-11-03T10:55:44.245Z,39.18
2022-11-03T11:00:42.378Z,38.13
2022-11-03T11:05:45.859Z,38.19
2022-11-03T11:10:45.377Z,37.86
2022-11-03T11:15:44.600Z,37.72
2022-11-03T11:20:42.123Z,37.24
2022-11-03T11:26:07.358Z,37.21
2022-11-03T11:31:29.315Z,36.99
2022-11-03T11:36:26.289Z,36.83
2022-11-03T11:41:56.396Z,36.16
2022-11-03T11:46:55.905Z,35.99
2022-11-03T11:51:52.781Z,36.14
2022-11-03T11:56:50.292Z,36.76
2022-11-03T12:01:50.649Z,37.34
2022-11-03T12:06:49.127Z,37.64
2022-11-03T12:11:49.219Z,37.90
2022-11-03T12:16:48.413Z,37.80
2022-11-03T12:21:47.933Z,37.64
2022-11-03T12:26:45.918Z,37.53
2022-11-03T12:31:42.966Z,37.78
2022-11-03T12:36:39.882Z,38.17
2022-11-03T12:41:37.496Z,38.13
2022-11-03T12:46:34.509Z,38.03
2022-11-03T12:51:31.983Z,38.39
2022-11-03T12:56:29.755Z,38.84
2022-11-03T13:01:27.503Z,39.14
2022-11-03T13:06:24.556Z,39.15
2022-11-03T13:11:39.432Z,39.15
2022-11-03T13:16:37.289Z,38.99
2022-11-03T13:21:34.318Z,39.48
2022-11-03T13:26:31.390Z,39.87
2022-11-03T13:31:28.324Z,40.39
2022-11-03T13:36:26.082Z,40.49
2022-11-03T13:41:23.167Z,41.09
2022-11-03T13:46:19.998Z,41.04
2022-11-03T13:51:18.374Z,41.49
2022-11-03T13:56:21.336Z,41.39
2022-11-03T14:01:20.056Z,41.70
2022-11-03T14:06:17.237Z,41.61
2022-11-03T14:11:33.638Z,42.30
2022-11-03T14:16:31.658Z,41.91
2022-11-03T14:21:29.149Z,42.31
2022-11-03T14:26:41.600Z,42.71
2022-11-03T14:31:41.558Z,42.44
2022-11-03T14:36:38.914Z,42.43
2022-11-03T14:42:03.500Z,42.71
2022-11-03T14:47:14.028Z,43.33
2022-11-03T14:52:14.644Z,43.48
2022-11-03T14:57:12.085Z,44.00
2022-11-03T15:02:10.633Z,44.12
2022-11-03T15:07:07.788Z,44.03
2022-11-03T15:12:06.119Z,44.27
2022-11-03T15:17:06.934Z,44.55
2022-11-03T15:22:05.522Z,45.00
2022-11-03T15:27:07.171Z,45.87
2022-11-03T15:32:08.110Z,46.14
2022-11-03T15:37:06.603Z,46.12
2022-11-03T15:42:10.944Z,46.43
2022-11-03T15:47:09.340Z,46.79
2022-11-03T15:52:09.831Z,47.11
2022-11-03T15:57:06.971Z,47.32
2022-11-03T16:02:40.184Z,47.55
2022-11-03T16:07:40.859Z,47.75
2022-11-03T16:12:45.310Z,48.17
2022-11-03T16:17:58.637Z,48.20
2022-11-03T16:23:01.740Z,48.21
2022-11-03T16:28:10.433Z,48.14
2022-11-03T16:33:09.675Z,48.20
2022-11-03T16:38:10.054Z,47.97
2022-11-03T16:43:07.665Z,48.10
2022-11-03T16:48:06.363Z,47.77
2022-11-03T16:53:13.961Z,47.51
2022-11-03T16:58:14.202Z,47.65
2022-11-03T17:03:11.175Z,47.72
2022-11-03T17:08:38.629Z,48.06
2022-11-03T17:13:36.296Z,47.88
2022-11-03T17:18:34.196Z,47.62
2022-11-03T17:23:32.789Z,47.36
2022-11-03T17:28:29.821Z,46.94
2022-11-03T17:33:27.842Z,47.46
2022-11-03T17:38:26.428Z,47.71
2022-11-03T17:43:37.789Z,47.77
2022-11-03T17:48:40.074Z,47.45
2022-11-03T17:53:39.669Z,47.20
2022-11-03T17:58:43.182Z,47.13
2022-11-03T18:03:42.678Z,46.87
2022-11-03T18:08:40.256Z,47.25
2022-11-03T18:13:37.932Z,47.70
2022-11-03T18:18:38.160Z,48.08
2022-11-03T18:23:36.369Z,48.15
2022-11-03T18:28:33.704Z,48.37
2022-11-03T18:33:34.747Z,48.67
2022-11-03T18:38:38.771Z,49.18
2022-11-03T18:43:43.052Z,49.28
2022-11-03T18:48:43.028Z,49.61
2022-11-03T18:53:40.554Z,49.85
2022-11-03T18:58:39.279Z,49.65
2022-11-03T19:03:36.303Z,49.95
2022-11-03T19:08:38.183Z,50.03
2022-11-03T19:13:48.261Z,50.10
2022-11-03T19:18:48.416Z,50.01
2022-11-03T19:23:48.071Z,49.61
2022-11-03T19:28:51.506Z,49.34
2022-11-03T19:33:49.752Z,48.56
2022-11-03T19:38:47.430Z,48.31
2022-11-03T19:43:44.907Z,48.17
2022-11-03T19:48:50.258Z,48.23
2022-11-03T19:53:51.931Z,48.21
2022-11-03T19:58:49.202Z,48.40
2022-11-03T20:03:47.219Z,48.73
2022-11-03T20:08:46.754Z,49.03
2022-11-03T20:13:44.124Z,49.29
2022-11-03T20:18:43.473Z,49.81
2022-11-03T20:23:40.859Z,49.83
2022-11-03T20:28:38.909Z,50.03
2022-11-03T20:33:36.519Z,49.72
2022-11-03T20:38:34.161Z,49.63
2022-11-03T20:43:35.247Z,49.60
2022-11-03T20:48:33.268Z,49.38
2022-11-03T20:53:31.816Z,49.42
2022-11-03T20:58:29.654Z,49.49
2022-11-03T21:03:53.507Z,49.56
2022-11-03T21:08:47.165Z,50.03
2022-11-03T21:13:44.332Z,50.35
2022-11-03T21:18:59.415Z,50.63
2022-11-03T21:23:57.530Z,51.11
2022-11-03T21:28:54.673Z,51.55
2022-11-03T21:33:51.762Z,52.38
2022-11-03T21:38:48.846Z,53.12
2022-11-03T21:44:04.726Z,54.19
2022-11-03T21:49:21.752Z,55.35
2022-11-03T21:54:18.731Z,56.31
2022-11-03T21:59:16.494Z,56.10
2022-11-03T22:04:13.558Z,56.02
2022-11-03T22:09:10.722Z,57.33
2022-11-03T22:14:10.452Z,58.09
2022-11-03T22:19:28.188Z,59.02
2022-11-03T22:24:42.815Z,59.87
2022-11-03T22:29:57.903Z,60.51
2022-11-03T22:35:13.852Z,60.93
2022-11-03T22:40:30.610Z,61.46
2022-11-03T22:45:45.470Z,61.64
2022-11-03T22:50:43.912Z,61.77
2022-11-03T22:55:41.012Z,61.84
2022-11-03T23:00:39.815Z,61.92
2022-11-03T23:05:37.218Z,61.69
2022-11-03T23:10:35.289Z,61.96
2022-11-03T23:15:32.831Z,62.31
2022-11-03T23:20:47.495Z,62.43
2022-11-03T23:25:45.507Z,63.09
2022-11-03T23:30:44.848Z,62.67
2022-11-03T23:35:41.837Z,61.99
2022-11-03T23:40:39.091Z,62.31
2022-11-03T23:45:55.158Z,63.01
2022-11-03T23:50:53.078Z,63.18
2022-11-03T23:56:04.496Z,63.29
